createdAt,value
2022-12-28T00:01:48.347Z,0.83
2022-12-28T00:04:15.940Z,1.07
2022-12-28T00:06:43.338Z,1.21
2022-12-28T00:09:13.180Z,1.22
2022-12-28T00:11:40.732Z,1.06
2022-12-28T00:14:08.387Z,0.85
2022-12-28T00:16:41.095Z,0.72
2022-12-28T00:19:16.979Z,0.75
2022-12-28T00:21:46.831Z,0.75
2022-12-28T00:24:23.287Z,0.79
2022-12-28T00:26:51.240Z,1.13
2022-12-28T00:29:20.224Z,1.10
2022-12-28T00:31:47.523Z,1.04
2022-12-28T00:34:15.198Z,0.93
2022-12-28T00:37:08.571Z,0.98
2022-12-28T00:39:30.328Z,1.14
2022-12-28T00:41:57.546Z,1.18
2022-12-28T00:44:24.800Z,1.18
2022-12-28T00:46:52.254Z,1.31
2022-12-28T00:49:19.474Z,1.25
2022-12-28T00:51:47.241Z,1.08
2022-12-28T00:54:14.523Z,0.93
2022-12-28T00:56:43.104Z,0.78
2022-12-28T00:59:10.877Z,0.72
2022-12-28T01:01:38.664Z,0.59
2022-12-28T01:04:06.076Z,0.55
2022-12-28T01:06:33.304Z,0.50
2022-12-28T01:09:00.729Z,0.46
2022-12-28T01:11:31.911Z,0.42
2022-12-28T01:14:02.842Z,0.54
2022-12-28T01:16:34.665Z,0.62
2022-12-28T01:19:05.691Z,0.81
2022-12-28T01:21:35.251Z,0.82
2022-12-28T01:24:05.888Z,0.77
2022-12-28T01:26:33.508Z,0.60
2022-12-28T01:29:00.878Z,0.53
2022-12-28T01:31:28.615Z,0.38
2022-12-28T01:33:56.139Z,0.26
2022-12-28T01:36:27.311Z,0.15
2022-12-28T01:38:57.723Z,0.06
2022-12-28T01:41:28.033Z,-0.01
2022-12-28T01:43:55.113Z,-0.06
2022-12-28T01:46:42.222Z,-0.05
2022-12-28T01:49:19.253Z,0.12
2022-12-28T01:52:14.037Z,0.08
2022-12-28T01:54:53.790Z,-0.08
2022-12-28T01:57:28.776Z,-0.12
2022-12-28T02:00:12.124Z,-0.14
2022-12-28T02:02:51.402Z,-0.12
2022-12-28T02:05:20.392Z,-0.06
2022-12-28T02:08:06.043Z,0.10
2022-12-28T02:10:42.295Z,0.18
2022-12-28T02:13:13.625Z,0.34
2022-12-28T02:15:40.946Z,0.22
2022-12-28T02:18:09.237Z,0.36
2022-12-28T02:21:19.152Z,0.70
2022-12-28T02:24:35.046Z,0.94
2022-12-28T02:27:39.101Z,0.74
2022-12-28T02:30:11.602Z,0.38
2022-12-28T02:33:05.742Z,0.13
2022-12-28T02:35:54.418Z,-0.01
2022-12-28T02:38:32.012Z,-0.20
2022-12-28T02:41:09.275Z,-0.40
2022-12-28T02:43:37.136Z,-0.41
2022-12-28T02:46:39.923Z,-0.20
2022-12-28T02:49:46.854Z,-0.24
2022-12-28T02:52:51.003Z,-0.42
2022-12-28T02:56:08.687Z,-0.51
2022-12-28T02:59:03.662Z,-0.59
2022-12-28T03:02:13.371Z,-0.61
2022-12-28T03:05:48.280Z,-0.70
2022-12-28T03:08:31.759Z,-0.77
2022-12-28T03:11:16.831Z,-0.68
2022-12-28T03:13:58.415Z,-0.30
2022-12-28T03:17:04.219Z,-0.28
2022-12-28T03:20:03.410Z,-0.21
2022-12-28T03:22:52.472Z,-0.17
2022-12-28T03:25:43.238Z,-0.40
2022-12-28T03:28:37.162Z,-0.40
2022-12-28T03:31:13.599Z,-0.40
2022-12-28T03:33:53.792Z,-0.38
2022-12-28T03:36:33.320Z,-0.34
2022-12-28T03:39:22.899Z,-0.32
2022-12-28T03:42:18.146Z,-0.15
2022-12-28T03:45:12.013Z,0.03
2022-12-28T03:47:42.821Z,0.07
2022-12-28T03:50:11.367Z,0.16
2022-12-28T03:52:39.233Z,-0.04
2022-12-28T03:55:07.222Z,-0.12
2022-12-28T03:57:34.635Z,-0.23
2022-12-28T04:00:05.092Z,0.01
2022-12-28T04:02:43.426Z,0.16
2022-12-28T04:05:11.335Z,0.23
2022-12-28T04:07:40.357Z,0.23
2022-12-28T04:10:08.237Z,0.37
2022-12-28T04:12:35.805Z,0.24
2022-12-28T04:15:23.474Z,0.13
2022-12-28T04:17:51.010Z,0.08
2022-12-28T04:20:18.388Z,-0.01
2022-12-28T04:22:45.663Z,-0.02
2022-12-28T04:25:13.135Z,-0.21
2022-12-28T04:27:40.697Z,-0.40
2022-12-28T04:30:17.557Z,-0.48
2022-12-28T04:32:44.858Z,-0.41
2022-12-28T04:35:13.847Z,-0.33
2022-12-28T04:37:48.593Z,-0.24
2022-12-28T04:40:15.875Z,-0.16
2022-12-28T04:42:43.031Z,-0.19
2022-12-28T04:45:10.780Z,-0.20
2022-12-28T04:47:37.997Z,-0.22
2022-12-28T04:50:05.734Z,-0.35
2022-12-28T04:52:34.484Z,-0.42
2022-12-28T04:55:01.804Z,-0.28
2022-12-28T04:57:29.035Z,-0.23
2022-12-28T04:59:56.256Z,-0.21
2022-12-28T05:02:23.567Z,-0.23
2022-12-28T05:04:50.812Z,-0.32
2022-12-28T05:07:18.029Z,-0.19
2022-12-28T05:09:45.270Z,-0.23
2022-12-28T05:12:12.433Z,-0.16
2022-12-28T05:14:39.678Z,-0.03
2022-12-28T05:17:06.913Z,-0.11
2022-12-28T05:19:34.228Z,-0.17
2022-12-28T05:22:01.460Z,-0.14
2022-12-28T05:24:28.822Z,-0.17
2022-12-28T05:26:56.099Z,-0.24
2022-12-28T05:29:23.248Z,-0.17
2022-12-28T05:31:50.660Z,-0.17
2022-12-28T05:34:17.827Z,-0.06
2022-12-28T05:36:45.192Z,-0.24
2022-12-28T05:39:12.460Z,-0.22
2022-12-28T05:41:39.742Z,-0.24
2022-12-28T05:44:07.226Z,-0.21
2022-12-28T05:46:35.303Z,-0.19
2022-12-28T05:49:03.011Z,-0.34
2022-12-28T05:51:33.093Z,-0.34
2022-12-28T05:54:04.532Z,-0.27
2022-12-28T05:56:33.181Z,-0.47
2022-12-28T05:59:03.515Z,-0.51
2022-12-28T06:01:40.534Z,-0.64
2022-12-28T06:04:14.881Z,-0.64
2022-12-28T06:06:42.928Z,-0.65
2022-12-28T06:09:10.236Z,-0.44
2022-12-28T06:11:37.449Z,-0.50
2022-12-28T06:14:06.012Z,-0.49
2022-12-28T06:16:40.707Z,-0.52
2022-12-28T06:19:11.305Z,-0.38
2022-12-28T06:21:40.453Z,-0.58
2022-12-28T06:24:09.204Z,-0.60
2022-12-28T06:26:39.473Z,-0.67
2022-12-28T06:29:07.403Z,-0.75
2022-12-28T06:31:38.538Z,-0.78
2022-12-28T06:34:08.982Z,-0.77
2022-12-28T06:36:43.168Z,-0.74
2022-12-28T06:39:13.819Z,-0.75
2022-12-28T06:41:42.569Z,-0.77
2022-12-28T06:44:12.701Z,-0.70
2022-12-28T06:46:40.652Z,-0.56
2022-12-28T06:49:08.119Z,-0.47
2022-12-28T06:51:40.677Z,-0.35
2022-12-28T06:54:09.173Z,-0.32
2022-12-28T06:56:37.734Z,-0.14
2022-12-28T06:59:05.585Z,-0.10
2022-12-28T07:01:40.378Z,-0.09
2022-12-28T07:04:09.890Z,0.01
2022-12-28T07:06:41.848Z,0.11
2022-12-28T07:09:13.585Z,0.22
2022-12-28T07:11:42.503Z,0.30
2022-12-28T07:14:10.154Z,0.30
2022-12-28T07:19:03.838Z,0.76
2022-12-28T07:21:35.059Z,0.97
2022-12-28T07:24:03.105Z,1.23
2022-12-28T07:26:33.712Z,1.30
2022-12-28T07:29:03.367Z,1.31
2022-12-28T07:31:41.645Z,1.31
2022-12-28T07:34:12.487Z,1.53
2022-12-28T07:36:39.802Z,1.65
2022-12-28T07:39:07.175Z,1.69
2022-12-28T07:41:36.428Z,1.81
2022-12-28T07:44:35.487Z,2.03
2022-12-28T07:47:05.516Z,2.04
2022-12-28T07:49:32.780Z,2.09
2022-12-28T07:52:00.158Z,2.17
2022-12-28T07:54:27.345Z,2.37
2022-12-28T07:56:54.580Z,2.47
2022-12-28T07:59:25.939Z,2.64
2022-12-28T08:01:56.578Z,2.83
2022-12-28T08:04:23.864Z,3.11
2022-12-28T08:06:51.027Z,3.07
2022-12-28T08:09:18.326Z,3.31
2022-12-28T08:11:48.701Z,3.59
2022-12-28T08:14:16.320Z,3.79
2022-12-28T08:16:44.738Z,4.21
2022-12-28T08:19:12.446Z,4.59
2022-12-28T08:21:45.965Z,5.47
2022-12-28T08:24:19.603Z,5.44
2022-12-28T08:26:48.674Z,6.56
2022-12-28T08:29:21.410Z,7.83
2022-12-28T08:31:49.679Z,9.29
2022-12-28T08:34:26.738Z,10.77
2022-12-28T08:36:55.936Z,11.16
2022-12-28T08:39:23.159Z,10.86
2022-12-28T08:41:50.473Z,9.18
2022-12-28T08:44:17.776Z,8.34
2022-12-28T08:46:45.169Z,7.87
2022-12-28T08:49:12.935Z,7.32
2022-12-28T08:51:42.201Z,7.81
2022-12-28T08:54:12.148Z,8.48
2022-12-28T08:56:42.442Z,8.80
2022-12-28T08:59:15.480Z,8.19
2022-12-28T09:01:44.904Z,7.36
2022-12-28T09:04:19.894Z,6.99
2022-12-28T09:06:48.479Z,6.40
2022-12-28T09:09:19.881Z,6.03
2022-12-28T09:11:48.776Z,5.86
2022-12-28T09:14:23.189Z,5.70
2022-12-28T09:16:53.870Z,5.49
2022-12-28T09:19:22.274Z,4.98
2022-12-28T09:21:52.552Z,4.87
2022-12-28T09:24:20.379Z,4.98
2022-12-28T09:26:48.774Z,5.16
2022-12-28T09:29:16.250Z,5.03
2022-12-28T09:31:44.374Z,5.19
2022-12-28T09:37:01.097Z,5.44
2022-12-28T09:39:29.279Z,5.42
2022-12-28T09:42:17.876Z,5.65
2022-12-28T09:45:09.183Z,5.89
2022-12-28T09:47:36.653Z,6.14
2022-12-28T09:50:19.229Z,6.37
2022-12-28T09:53:29.636Z,6.74
2022-12-28T09:56:25.490Z,6.87
2022-12-28T09:58:53.904Z,6.95
2022-12-28T10:01:22.834Z,6.92
2022-12-28T10:03:50.552Z,7.31
2022-12-28T10:06:28.423Z,7.57
2022-12-28T10:08:59.274Z,7.61
2022-12-28T10:11:29.673Z,7.37
2022-12-28T10:14:01.266Z,7.35
2022-12-28T10:16:32.982Z,7.31
2022-12-28T10:19:00.798Z,7.47
2022-12-28T10:21:33.437Z,7.66
2022-12-28T10:24:30.477Z,7.66
2022-12-28T10:26:52.080Z,7.48
2022-12-28T10:29:22.332Z,7.28
2022-12-28T10:32:09.652Z,7.14
2022-12-28T10:34:37.755Z,7.03
2022-12-28T10:37:27.552Z,6.70
2022-12-28T10:40:02.285Z,6.75
2022-12-28T10:42:44.185Z,6.77
2022-12-28T10:45:22.705Z,6.62
2022-12-28T10:47:56.565Z,6.30
2022-12-28T10:50:59.414Z,6.11
2022-12-28T10:53:42.989Z,6.24
2022-12-28T10:56:13.242Z,6.22
2022-12-28T10:58:50.157Z,5.92
2022-12-28T11:01:27.474Z,6.06
2022-12-28T11:04:26.108Z,6.15
2022-12-28T11:07:02.751Z,6.16
2022-12-28T11:09:33.669Z,6.53
2022-12-28T11:12:25.953Z,6.42
2022-12-28T11:14:54.393Z,6.62
2022-12-28T11:17:27.345Z,6.52
2022-12-28T11:20:20.697Z,6.05
2022-12-28T11:22:48.375Z,6.07
2022-12-28T11:25:19.189Z,5.96
2022-12-28T11:27:47.935Z,6.07
2022-12-28T11:30:20.180Z,6.03
2022-12-28T11:32:58.971Z,6.16
2022-12-28T11:35:33.527Z,6.49
2022-12-28T11:38:04.379Z,6.63
2022-12-28T11:40:52.670Z,6.58
2022-12-28T11:43:50.472Z,6.38
2022-12-28T11:46:23.678Z,6.29
2022-12-28T11:49:04.910Z,6.07
2022-12-28T11:51:37.794Z,6.17
2022-12-28T11:54:39.022Z,6.04
2022-12-28T11:57:09.121Z,5.88
2022-12-28T11:59:36.840Z,5.87
2022-12-28T12:02:26.910Z,5.74
2022-12-28T12:04:54.151Z,5.93
2022-12-28T12:07:46.980Z,5.93
2022-12-28T12:10:36.676Z,6.07
2022-12-28T12:13:26.777Z,6.01
2022-12-28T12:16:07.081Z,5.98
2022-12-28T12:18:55.560Z,5.85
2022-12-28T12:21:35.544Z,5.92
2022-12-28T12:24:21.036Z,6.01
2022-12-28T12:26:58.760Z,5.97
2022-12-28T12:29:38.403Z,5.99
2022-12-28T12:32:28.250Z,5.97
2022-12-28T12:35:07.265Z,6.09
2022-12-28T12:37:59.344Z,6.05
2022-12-28T12:40:58.917Z,6.11
2022-12-28T12:43:47.012Z,6.16
2022-12-28T12:46:46.736Z,6.21
2022-12-28T12:49:30.062Z,6.29
2022-12-28T12:51:57.242Z,6.43
2022-12-28T12:54:31.919Z,6.45
2022-12-28T12:57:11.368Z,6.50
2022-12-28T13:00:17.065Z,6.49
2022-12-28T13:02:56.424Z,6.51
2022-12-28T13:05:28.765Z,6.50
2022-12-28T13:07:58.820Z,6.47
2022-12-28T13:10:34.878Z,6.48
2022-12-28T13:13:04.911Z,6.47
2022-12-28T13:15:32.441Z,6.44
2022-12-28T13:18:44.684Z,6.53
2022-12-28T13:21:21.301Z,6.63
2022-12-28T13:23:50.363Z,6.58
2022-12-28T13:26:19.058Z,6.68
2022-12-28T13:29:01.192Z,6.47
2022-12-28T13:31:42.302Z,6.64
2022-12-28T13:34:30.767Z,6.58
2022-12-28T13:37:22.669Z,6.74
2022-12-28T13:39:50.356Z,6.61
2022-12-28T13:42:23.367Z,6.92
2022-12-28T13:45:00.672Z,7.09
2022-12-28T13:47:41.300Z,7.03
2022-12-28T13:50:16.377Z,7.07
2022-12-28T13:53:11.789Z,6.97
2022-12-28T13:55:46.234Z,6.98
2022-12-28T13:58:23.500Z,7.00
2022-12-28T14:00:53.906Z,6.93
2022-12-28T14:03:22.381Z,6.92
2022-12-28T14:06:00.239Z,6.71
2022-12-28T14:08:29.607Z,6.41
2022-12-28T14:10:57.711Z,6.16
2022-12-28T14:13:26.021Z,6.03
2022-12-28T14:15:55.259Z,5.86
2022-12-28T14:18:22.913Z,5.79
2022-12-28T14:20:56.372Z,5.69
2022-12-28T14:23:24.981Z,5.74
2022-12-28T14:25:55.252Z,5.69
2022-12-28T14:28:44.221Z,5.60
2022-12-28T14:31:19.592Z,5.64
2022-12-28T14:33:50.064Z,5.52
2022-12-28T14:36:22.503Z,5.44
2022-12-28T14:38:57.274Z,5.30
2022-12-28T14:41:38.663Z,5.34
2022-12-28T14:44:15.498Z,5.32
2022-12-28T14:46:45.025Z,5.20
2022-12-28T14:49:44.857Z,5.23
2022-12-28T14:52:12.155Z,5.14
2022-12-28T14:54:51.471Z,5.03
2022-12-28T14:57:40.597Z,5.00
2022-12-28T15:00:33.345Z,4.92
2022-12-28T15:03:21.574Z,4.89
2022-12-28T15:05:54.693Z,4.96
2022-12-28T15:08:23.202Z,4.98
2022-12-28T15:11:00.644Z,4.94
2022-12-28T15:13:28.130Z,5.00
2022-12-28T15:16:06.870Z,5.03
2022-12-28T15:18:34.396Z,5.05
2022-12-28T15:21:05.854Z,5.20
2022-12-28T15:23:34.027Z,5.08
2022-12-28T15:26:13.666Z,5.11
2022-12-28T15:28:41.627Z,5.12
2022-12-28T15:31:13.684Z,5.08
2022-12-28T15:33:41.170Z,5.10
2022-12-28T15:36:17.801Z,5.05
2022-12-28T15:38:47.735Z,5.09
2022-12-28T15:41:34.801Z,5.13
2022-12-28T15:44:02.823Z,5.12
2022-12-28T15:46:30.177Z,5.02
2022-12-28T15:48:57.857Z,5.08
2022-12-28T15:51:25.328Z,5.23
2022-12-28T15:53:52.951Z,5.15
2022-12-28T15:56:28.224Z,5.14
2022-12-28T15:58:58.727Z,5.19
2022-12-28T16:01:29.996Z,5.07
2022-12-28T16:04:01.369Z,5.03
2022-12-28T16:06:31.904Z,5.04
2022-12-28T16:09:01.210Z,5.07
2022-12-28T16:11:30.452Z,5.10
2022-12-28T16:14:02.389Z,5.08
2022-12-28T16:16:34.532Z,5.12
2022-12-28T16:19:02.588Z,5.16
2022-12-28T16:21:30.371Z,5.09
2022-12-28T16:24:00.813Z,5.11
2022-12-28T16:26:28.548Z,5.00
2022-12-28T16:28:57.666Z,5.05
2022-12-28T16:31:37.842Z,4.96
2022-12-28T16:34:17.377Z,5.05
2022-12-28T16:36:48.756Z,5.04
2022-12-28T16:39:18.142Z,5.00
2022-12-28T16:41:45.331Z,5.03
2022-12-28T16:44:17.004Z,5.00
2022-12-28T16:46:44.364Z,5.09
2022-12-28T16:49:11.935Z,5.15
2022-12-28T16:51:41.964Z,5.22
2022-12-28T16:54:15.002Z,5.41
2022-12-28T16:56:43.662Z,5.45
2022-12-28T16:59:18.875Z,5.30
2022-12-28T17:01:46.724Z,5.34
2022-12-28T17:04:14.927Z,5.25
2022-12-28T17:06:44.080Z,5.28
2022-12-28T17:09:11.326Z,5.28
2022-12-28T17:11:38.614Z,5.28
2022-12-28T17:14:10.797Z,5.44
2022-12-28T17:16:39.049Z,5.45
2022-12-28T17:19:07.075Z,5.52
2022-12-28T17:21:35.234Z,5.44
2022-12-28T17:24:03.236Z,5.41
2022-12-28T17:26:30.577Z,5.26
2022-12-28T17:28:59.419Z,5.11
2022-12-28T17:31:26.986Z,4.98
2022-12-28T17:34:00.556Z,4.91
2022-12-28T17:36:28.043Z,4.52
2022-12-28T17:38:55.310Z,4.26
2022-12-28T17:41:27.759Z,4.14
2022-12-28T17:43:58.526Z,4.11
2022-12-28T17:46:27.736Z,3.97
2022-12-28T17:48:57.645Z,3.96
2022-12-28T17:51:25.669Z,4.05
2022-12-28T17:53:56.052Z,4.10
2022-12-28T17:56:23.631Z,4.35
2022-12-28T17:58:56.573Z,4.50
2022-12-28T18:01:25.218Z,4.48
2022-12-28T18:03:52.823Z,4.51
2022-12-28T18:06:20.428Z,4.43
2022-12-28T18:08:48.075Z,4.37
2022-12-28T18:11:16.221Z,4.29
2022-12-28T18:13:46.584Z,4.24
2022-12-28T18:16:19.046Z,4.26
2022-12-28T18:18:46.684Z,4.23
2022-12-28T18:21:21.440Z,4.26
2022-12-28T18:23:52.480Z,4.30
2022-12-28T18:26:26.804Z,4.36
2022-12-28T18:28:55.927Z,4.25
2022-12-28T18:31:25.231Z,4.37
2022-12-28T18:33:53.239Z,4.29
2022-12-28T18:36:20.595Z,4.18
2022-12-28T18:38:48.639Z,4.11
2022-12-28T18:41:22.496Z,4.12
2022-12-28T18:43:51.538Z,4.04
2022-12-28T18:46:19.321Z,4.00
2022-12-28T18:48:46.699Z,4.08
2022-12-28T18:51:18.493Z,4.07
2022-12-28T18:53:46.617Z,4.11
2022-12-28T18:56:18.128Z,4.24
2022-12-28T18:58:50.927Z,4.23
2022-12-28T19:04:10.656Z,4.30
2022-12-28T19:06:38.675Z,4.36
2022-12-28T19:09:08.058Z,4.44
2022-12-28T19:11:37.031Z,4.39
2022-12-28T19:14:06.053Z,4.42
2022-12-28T19:16:34.880Z,4.42
2022-12-28T19:19:02.734Z,4.37
2022-12-28T19:21:42.288Z,4.44
2022-12-28T19:24:16.972Z,4.34
2022-12-28T19:26:45.996Z,4.33
2022-12-28T19:29:15.724Z,4.26
2022-12-28T19:31:43.641Z,4.02
2022-12-28T19:34:11.091Z,3.91
2022-12-28T19:36:38.586Z,3.85
2022-12-28T19:39:05.973Z,3.90
2022-12-28T19:41:33.680Z,3.95
2022-12-28T19:44:01.720Z,4.05
2022-12-28T19:46:32.413Z,3.97
2022-12-28T19:49:02.549Z,3.99
2022-12-28T19:51:32.481Z,3.97
2022-12-28T19:54:01.675Z,3.90
2022-12-28T19:56:29.382Z,4.05
2022-12-28T19:59:05.125Z,3.91
2022-12-28T20:01:35.298Z,3.98
2022-12-28T20:04:08.863Z,4.00
2022-12-28T20:06:41.062Z,3.98
2022-12-28T20:09:08.544Z,3.96
2022-12-28T20:11:36.551Z,3.87
2022-12-28T20:14:04.334Z,3.80
2022-12-28T20:16:33.985Z,3.87
2022-12-28T20:19:01.864Z,3.77
2022-12-28T20:21:29.450Z,3.91
2022-12-28T20:23:56.922Z,4.02
2022-12-28T20:26:25.202Z,4.13
2022-12-28T20:28:53.203Z,4.07
2022-12-28T20:31:20.737Z,4.12
2022-12-28T20:33:48.649Z,4.05
2022-12-28T20:36:21.639Z,4.00
2022-12-28T20:38:50.279Z,4.06
2022-12-28T20:41:43.384Z,4.01
2022-12-28T20:44:14.277Z,4.11
2022-12-28T20:46:45.141Z,4.04
2022-12-28T20:49:12.835Z,4.06
2022-12-28T20:51:42.693Z,4.01
2022-12-28T20:54:11.091Z,4.13
2022-12-28T20:56:39.106Z,4.11
2022-12-28T20:59:07.363Z,3.98
2022-12-28T21:01:36.644Z,3.94
2022-12-28T21:04:05.470Z,3.99
2022-12-28T21:06:33.659Z,4.25
2022-12-28T21:09:01.763Z,4.26
2022-12-28T21:11:31.148Z,4.06
2022-12-28T21:13:58.552Z,3.77
2022-12-28T21:16:26.281Z,3.65
2022-12-28T21:18:53.574Z,3.49
2022-12-28T21:21:22.502Z,3.42
2022-12-28T21:23:50.238Z,3.60
2022-12-28T21:26:19.935Z,3.75
2022-12-28T21:28:48.411Z,3.92
2022-12-28T21:31:16.410Z,4.11
2022-12-28T21:33:44.022Z,4.18
2022-12-28T21:36:16.333Z,4.11
2022-12-28T21:38:45.740Z,4.02
2022-12-28T21:41:41.812Z,3.84
2022-12-28T21:44:14.250Z,3.68
2022-12-28T21:46:42.887Z,3.42
2022-12-28T21:49:10.432Z,3.37
2022-12-28T21:51:39.393Z,3.25
2022-12-28T21:54:08.246Z,3.15
2022-12-28T21:56:37.105Z,3.15
2022-12-28T21:59:05.435Z,3.15
2022-12-28T22:01:52.529Z,2.95
2022-12-28T22:04:40.999Z,2.91
2022-12-28T22:07:11.696Z,2.87
2022-12-28T22:10:00.092Z,2.81
2022-12-28T22:12:39.665Z,2.79
2022-12-28T22:15:35.865Z,3.01
2022-12-28T22:19:01.045Z,3.14
2022-12-28T22:21:09.996Z,3.23
2022-12-28T22:23:37.359Z,3.42
2022-12-28T22:26:04.875Z,3.32
2022-12-28T22:28:32.219Z,3.32
2022-12-28T22:31:03.915Z,3.24
2022-12-28T22:33:31.531Z,3.17
2022-12-28T22:36:08.929Z,3.29
2022-12-28T22:38:36.183Z,3.15
2022-12-28T22:41:03.585Z,3.14
2022-12-28T22:43:30.983Z,2.98
2022-12-28T22:46:08.188Z,3.23
2022-12-28T22:48:35.719Z,3.64
2022-12-28T22:51:09.799Z,3.85
2022-12-28T22:53:37.692Z,4.04
2022-12-28T22:56:20.001Z,3.99
2022-12-28T22:58:48.770Z,4.13
2022-12-28T23:01:19.107Z,4.16
2022-12-28T23:03:48.593Z,4.15
2022-12-28T23:06:19.642Z,4.08
2022-12-28T23:08:47.602Z,4.08
2022-12-28T23:11:36.722Z,3.87
2022-12-28T23:14:36.313Z,3.98
2022-12-28T23:17:09.711Z,4.27
2022-12-28T23:19:55.800Z,4.14
2022-12-28T23:22:46.819Z,4.01
2022-12-28T23:25:37.718Z,3.84
2022-12-28T23:28:11.823Z,3.76
2022-12-28T23:30:44.219Z,3.67
2022-12-28T23:33:11.740Z,3.55
2022-12-28T23:35:39.295Z,3.43
2022-12-28T23:38:06.647Z,3.44
2022-12-28T23:40:33.955Z,3.57
2022-12-28T23:43:01.228Z,3.71
2022-12-28T23:45:28.612Z,3.79
2022-12-28T23:47:56.003Z,3.72
2022-12-28T23:50:23.403Z,3.64
2022-12-28T23:52:50.717Z,3.73
2022-12-28T23:55:18.216Z,3.71
2022-12-28T23:57:45.561Z,3.65
